Time;durP1;ratioP1;P1;durP2;ratioP2;P2;SDS_P1;SDS_P2;PMS_P1;PMS_P2;Temp;Humidity;BMP_temperature;BMP_pressure;BME280_temperature;BME280_humidity;BME280_pressure;Samples;Min_cycle;Max_cycle;Signal;HPM_P1;HPM_P2
2022/12/02 00:02:30;;;;;;;99.87;40.00;;;6.70;93.20;;;;;;5094771;28;20020;-77
2022/12/02 00:05:02;;;;;;;88.47;38.07;;;6.70;93.20;;;;;;5094618;28;20384;-77
2022/12/02 00:07:28;;;;;;;98.63;39.73;;;6.70;93.20;;;;;;5095960;28;20039;-77
2022/12/02 00:09:53;;;;;;;88.17;37.03;;;6.60;93.20;;;;;;5077690;28;20028;-77
2022/12/02 00:12:23;;;;;;;92.47;39.70;;;6.60;93.20;;;;;;5094671;28;20503;-77
2022/12/02 00:14:56;;;;;;;87.33;36.97;;;6.60;93.20;;;;;;5094315;28;20020;-77
2022/12/02 00:17:22;;;;;;;85.70;39.17;;;6.60;93.30;;;;;;5094396;28;20020;-77
2022/12/02 00:19:47;;;;;;;84.80;36.50;;;6.60;93.20;;;;;;5095697;28;20149;-77
2022/12/02 00:22:13;;;;;;;82.93;36.83;;;6.50;93.20;;;;;;5076970;28;20078;-77
2022/12/02 00:24:38;;;;;;;84.90;37.77;;;6.60;93.40;;;;;;5060823;28;20036;-77
2022/12/02 00:27:04;;;;;;;81.90;36.23;;;6.60;93.10;;;;;;5095535;28;20391;-77
2022/12/02 00:29:30;;;;;;;78.37;36.67;;;6.50;93.00;;;;;;5094175;28;20032;-77
2022/12/02 00:31:55;;;;;;;72.97;34.57;;;6.60;93.40;;;;;;5077295;28;20115;-77
2022/12/02 00:34:21;;;;;;;76.47;34.27;;;6.50;93.10;;;;;;5095098;28;20048;-77
2022/12/02 00:36:46;;;;;;;74.90;34.93;;;6.50;93.10;;;;;;5077232;28;20078;-77
2022/12/02 00:39:12;;;;;;;68.60;32.90;;;6.50;93.10;;;;;;5095292;28;20383;-77
2022/12/02 00:41:37;;;;;;;69.03;33.37;;;6.50;93.00;;;;;;5095180;28;20025;-77
2022/12/02 00:46:47;;;;;;;71.78;32.58;;;6.50;93.00;;;;;;5095436;28;20047;-77
2022/12/02 00:49:15;;;;;;;65.60;31.97;;;6.50;93.00;;;;;;5094001;28;20035;-77
2022/12/02 00:51:42;;;;;;;66.23;32.00;;;6.40;92.90;;;;;;5095104;28;20476;-77
2022/12/02 00:54:08;;;;;;;69.93;33.40;;;6.40;93.10;;;;;;5093818;28;20392;-77
2022/12/02 00:56:34;;;;;;;65.20;29.43;;;6.40;92.80;;;;;;5093741;28;20020;-77
2022/12/02 00:59:00;;;;;;;68.63;32.23;;;6.40;92.70;;;;;;5094809;28;20035;-77
2022/12/02 01:01:27;;;;;;;69.50;31.53;;;6.40;92.70;;;;;;5094817;28;20027;-77
2022/12/02 01:03:53;;;;;;;66.20;30.67;;;6.40;92.70;;;;;;5093453;28;20390;-77
2022/12/02 01:06:19;;;;;;;77.70;35.27;;;6.40;92.70;;;;;;5094719;28;20027;-77
2022/12/02 01:08:45;;;;;;;70.90;34.20;;;6.40;92.60;;;;;;5094670;28;20036;-77
2022/12/02 01:11:11;;;;;;;69.63;34.30;;;6.40;92.50;;;;;;5094583;28;20472;-77
2022/12/02 01:13:37;;;;;;;69.30;32.90;;;6.40;92.70;;;;;;5094537;28;20386;-77
2022/12/02 01:16:03;;;;;;;76.80;34.07;;;6.30;92.40;;;;;;5094602;28;20028;-77
2022/12/02 01:18:28;;;;;;;64.70;32.20;;;6.30;92.40;;;;;;5094459;28;20063;-77
2022/12/02 01:20:54;;;;;;;66.40;30.57;;;6.30;92.40;;;;;;5093374;28;20056;-77
2022/12/02 01:23:20;;;;;;;63.47;31.57;;;6.30;92.40;;;;;;5093320;28;20081;-77
2022/12/02 01:25:47;;;;;;;66.13;31.83;;;6.40;92.40;;;;;;5094464;28;20454;-77
2022/12/02 01:28:13;;;;;;;67.67;30.23;;;6.30;92.40;;;;;;5094349;28;20032;-77
2022/12/02 01:30:39;;;;;;;70.57;33.87;;;6.30;92.40;;;;;;5076282;28;20029;-77
2022/12/02 01:33:04;;;;;;;71.50;32.57;;;6.20;92.30;;;;;;5093819;28;20024;-77
2022/12/02 01:35:30;;;;;;;70.70;33.10;;;6.30;92.40;;;;;;5093502;28;20051;-77
2022/12/02 01:37:55;;;;;;;68.90;31.60;;;6.20;92.30;;;;;;5094285;28;20103;-77
2022/12/02 01:40:21;;;;;;;71.73;31.40;;;6.20;92.40;;;;;;5092917;28;20047;-77
2022/12/02 01:42:48;;;;;;;74.23;33.07;;;6.30;92.40;;;;;;5076058;28;20119;-77
2022/12/02 01:45:14;;;;;;;74.50;32.30;;;6.20;92.40;;;;;;5059617;28;20028;-77
2022/12/02 01:47:40;;;;;;;65.63;31.87;;;6.20;92.40;;;;;;5093834;28;20032;-77
2022/12/02 01:50:09;;;;;;;66.67;31.60;;;6.20;92.40;;;;;;5093916;28;20025;-77
2022/12/02 01:52:35;;;;;;;68.53;31.83;;;6.20;92.40;;;;;;5092608;28;20028;-77
2022/12/02 01:55:02;;;;;;;65.67;30.47;;;6.20;92.40;;;;;;5092813;28;20020;-77
2022/12/02 01:57:29;;;;;;;67.97;30.20;;;6.20;92.40;;;;;;5092594;28;20021;-77
2022/12/02 01:59:56;;;;;;;71.70;32.73;;;6.10;92.40;;;;;;5092376;28;20020;-77
2022/12/02 02:02:34;;;;;;;71.83;32.40;;;6.20;92.40;;;;;;5093975;28;20024;-77
2022/12/02 02:05:16;;;;;;;65.07;31.43;;;6.20;92.40;;;;;;5092426;28;20020;-77
2022/12/02 02:07:43;;;;;;;69.93;32.70;;;6.20;92.40;;;;;;5093620;28;20048;-77
2022/12/02 02:10:10;;;;;;;68.00;31.87;;;6.10;92.30;;;;;;5093671;28;20032;-77
2022/12/02 02:12:35;;;;;;;66.20;30.83;;;6.10;92.30;;;;;;5093397;28;20039;-76
2022/12/02 02:15:07;;;;;;;71.97;32.23;;;6.10;92.30;;;;;;5091943;28;20399;-76
2022/12/02 02:17:33;;;;;;;65.13;29.93;;;6.10;92.30;;;;;;5093583;28;20024;-77
2022/12/02 02:20:00;;;;;;;63.37;30.77;;;6.10;92.30;;;;;;5093429;28;20099;-77
2022/12/02 02:22:32;;;;;;;60.37;30.20;;;6.10;92.40;;;;;;5093401;28;20052;-76
2022/12/02 02:24:58;;;;;;;67.87;31.90;;;6.20;92.40;;;;;;5092141;28;20148;-76
2022/12/02 02:27:23;;;;;;;64.13;29.67;;;6.10;92.30;;;;;;5093318;28;20439;-76
2022/12/02 02:29:49;;;;;;;65.87;31.37;;;6.10;92.30;;;;;;5092077;28;20544;-76
2022/12/02 02:32:15;;;;;;;65.73;29.37;;;6.10;92.30;;;;;;5075263;28;20020;-77
2022/12/02 02:34:40;;;;;;;60.03;28.57;;;6.10;92.30;;;;;;5091723;28;20072;-76
2022/12/02 02:37:06;;;;;;;64.30;31.23;;;6.10;92.30;;;;;;5092336;28;20426;-76
2022/12/02 02:39:32;;;;;;;61.70;29.27;;;6.10;92.20;;;;;;5075205;28;20058;-76
2022/12/02 02:41:58;;;;;;;60.13;28.33;;;6.10;92.20;;;;;;5074913;28;20035;-76
2022/12/02 02:44:27;;;;;;;58.93;27.37;;;6.10;92.10;;;;;;5091863;28;20376;-77
2022/12/02 02:46:53;;;;;;;64.83;29.33;;;6.00;92.10;;;;;;5092928;28;20024;-77
2022/12/02 02:49:19;;;;;;;62.17;30.03;;;6.00;92.10;;;;;;5092015;28;20073;-76
2022/12/02 02:51:44;;;;;;;61.53;28.23;;;6.00;92.10;;;;;;5093177;28;20028;-77
2022/12/02 02:54:10;;;;;;;62.77;28.97;;;6.00;92.10;;;;;;5093041;28;20430;-77
2022/12/02 02:56:36;;;;;;;67.37;30.20;;;6.00;92.10;;;;;;5093050;28;20099;-76
2022/12/02 02:59:01;;;;;;;65.47;29.80;;;6.00;92.10;;;;;;5093117;28;20028;-76
2022/12/02 03:01:32;;;;;;;63.40;29.23;;;6.00;92.10;;;;;;5091884;28;20025;-76
2022/12/02 03:04:03;;;;;;;63.57;29.20;;;6.00;92.10;;;;;;5091809;28;20438;-77
2022/12/02 03:06:31;;;;;;;62.70;27.90;;;6.00;92.20;;;;;;5091706;28;20093;-77
2022/12/02 03:08:58;;;;;;;63.50;27.23;;;5.80;92.20;;;;;;5092926;28;20055;-77
2022/12/02 03:11:26;;;;;;;55.33;25.63;;;5.90;92.20;;;;;;5092969;28;20031;-77
2022/12/02 03:13:52;;;;;;;63.40;26.27;;;5.80;92.20;;;;;;5092809;28;20511;-77
2022/12/02 03:16:20;;;;;;;58.63;25.37;;;5.90;92.30;;;;;;5091798;28;20028;-77
2022/12/02 03:18:47;;;;;;;56.67;24.23;;;5.90;92.30;;;;;;5092861;28;20028;-77
2022/12/02 03:21:15;;;;;;;57.47;24.50;;;5.80;92.30;;;;;;5091825;28;20506;-76
2022/12/02 03:23:42;;;;;;;53.63;25.00;;;5.80;92.50;;;;;;5092886;28;20024;-77
2022/12/02 03:26:08;;;;;;;62.73;26.73;;;5.80;92.30;;;;;;5093021;28;20044;-76
2022/12/02 03:28:35;;;;;;;58.17;25.53;;;5.80;92.20;;;;;;5091551;28;20055;-77
2022/12/02 03:31:01;;;;;;;61.17;26.53;;;5.80;92.10;;;;;;5091586;28;20112;-77
2022/12/02 03:33:27;;;;;;;55.70;25.67;;;5.80;92.10;;;;;;5092744;28;20036;-77
2022/12/02 03:35:53;;;;;;;59.67;24.47;;;5.70;92.00;;;;;;5091300;28;20075;-77
2022/12/02 03:38:19;;;;;;;55.87;25.23;;;5.80;92.00;;;;;;5085272;28;20473;-77
2022/12/02 03:40:46;;;;;;;55.43;24.37;;;5.80;92.10;;;;;;5090415;28;20024;-77
2022/12/02 03:43:12;;;;;;;60.03;25.67;;;5.70;92.10;;;;;;5091378;28;20095;-77
2022/12/02 03:45:38;;;;;;;55.00;24.07;;;5.80;92.10;;;;;;5072947;28;20029;-77
2022/12/02 03:48:04;;;;;;;52.13;24.50;;;5.80;92.10;;;;;;5090725;28;20027;-77
2022/12/02 03:50:30;;;;;;;48.13;22.53;;;5.80;92.10;;;;;;5091349;28;20030;-76
2022/12/02 03:52:56;;;;;;;56.93;23.03;;;5.80;92.00;;;;;;5092284;28;20091;-76
2022/12/02 03:55:21;;;;;;;53.87;24.37;;;5.80;92.00;;;;;;5092333;28;20078;-77
2022/12/02 03:57:47;;;;;;;56.77;24.63;;;5.70;91.90;;;;;;5093818;28;20038;-76
2022/12/02 04:00:13;;;;;;;53.97;24.20;;;5.70;91.90;;;;;;5096138;28;20031;-77
2022/12/02 04:02:39;;;;;;;58.27;26.03;;;5.70;91.90;;;;;;5078069;28;20503;-77
2022/12/02 04:05:05;;;;;;;60.37;25.07;;;5.70;91.90;;;;;;5094800;28;20024;-77
2022/12/02 04:07:31;;;;;;;58.37;25.87;;;5.70;91.80;;;;;;5095873;28;20115;-77
2022/12/02 04:09:57;;;;;;;60.73;25.67;;;5.70;91.80;;;;;;5094749;28;20028;-77
2022/12/02 04:12:22;;;;;;;66.90;25.90;;;5.70;91.90;;;;;;5095783;28;20032;-77
2022/12/02 04:14:48;;;;;;;58.00;24.73;;;5.70;91.90;;;;;;5094637;28;20472;-76
2022/12/02 04:17:13;;;;;;;62.27;25.23;;;5.70;91.90;;;;;;5094462;28;20020;-76
2022/12/02 04:19:39;;;;;;;55.97;24.57;;;5.70;92.00;;;;;;5077593;28;20016;-77
2022/12/02 04:22:04;;;;;;;58.33;24.03;;;5.60;92.00;;;;;;5094475;28;20027;-77
2022/12/02 04:24:30;;;;;;;52.53;24.20;;;5.60;91.90;;;;;;5094375;28;20036;-76
2022/12/02 04:26:56;;;;;;;54.20;22.00;;;5.60;91.90;;;;;;5094437;28;20081;-77
2022/12/02 04:29:21;;;;;;;49.67;21.07;;;5.60;91.90;;;;;;5094184;28;20102;-77
2022/12/02 04:31:47;;;;;;;48.50;21.30;;;5.60;91.90;;;;;;5094302;28;20031;-77
2022/12/02 04:34:12;;;;;;;50.27;21.13;;;5.60;91.80;;;;;;5093875;28;20044;-77
2022/12/02 04:36:38;;;;;;;43.70;19.60;;;5.60;91.70;;;;;;5077349;28;20028;-77
2022/12/02 04:39:04;;;;;;;46.20;20.40;;;5.60;91.70;;;;;;5094164;28;20051;-76
2022/12/02 04:41:30;;;;;;;42.90;18.87;;;5.50;91.60;;;;;;5094239;28;20051;-77
2022/12/02 04:43:55;;;;;;;40.27;17.37;;;5.50;91.70;;;;;;5077228;28;20480;-76
2022/12/02 04:46:21;;;;;;;37.97;17.53;;;5.50;91.80;;;;;;5095181;28;20035;-76
2022/12/02 04:48:47;;;;;;;41.97;18.73;;;5.60;91.90;;;;;;5095110;28;20134;-77
2022/12/02 04:51:12;;;;;;;41.93;18.50;;;5.50;91.90;;;;;;5094028;28;20444;-77
2022/12/02 04:53:38;;;;;;;48.03;20.20;;;5.40;91.80;;;;;;5094073;28;20037;-77
2022/12/02 04:56:04;;;;;;;43.10;17.53;;;5.50;91.80;;;;;;5093915;28;20020;-77
2022/12/02 04:58:29;;;;;;;42.27;18.10;;;5.40;91.80;;;;;;5076794;28;20113;-77
2022/12/02 05:00:55;;;;;;;40.23;17.53;;;5.50;91.80;;;;;;5094866;28;20032;-76
2022/12/02 05:03:20;;;;;;;40.27;17.57;;;5.40;91.80;;;;;;5093680;28;20475;-77
2022/12/02 05:05:46;;;;;;;39.90;17.90;;;5.40;91.70;;;;;;5093574;28;20032;-77
2022/12/02 05:08:12;;;;;;;35.00;15.27;;;5.40;91.80;;;;;;5093333;28;20024;-76
2022/12/02 05:10:37;;;;;;;43.87;18.77;;;5.50;91.80;;;;;;5076517;28;20030;-77
2022/12/02 05:13:03;;;;;;;39.63;17.40;;;5.40;91.70;;;;;;5093510;28;20081;-77
2022/12/02 05:15:28;;;;;;;44.80;19.53;;;5.50;91.80;;;;;;5093360;28;20032;-76
2022/12/02 05:17:54;;;;;;;35.60;16.13;;;5.40;91.70;;;;;;5093296;28;20077;-77
2022/12/02 05:20:20;;;;;;;38.40;16.97;;;5.40;91.70;;;;;;5093335;28;20024;-76
2022/12/02 05:22:45;;;;;;;42.20;16.37;;;5.40;91.60;;;;;;5076393;28;20040;-77
2022/12/02 05:25:11;;;;;;;38.23;18.47;;;5.30;91.60;;;;;;5076295;28;20086;-78
2022/12/02 05:27:36;;;;;;;37.70;16.10;;;5.40;91.70;;;;;;5093305;28;20043;-78
2022/12/02 05:30:05;;;;;;;35.20;16.57;;;5.30;91.60;;;;;;5076187;28;20498;-77
2022/12/02 05:32:30;;;;;;;42.27;17.57;;;5.30;91.60;;;;;;5093062;28;20020;-78
2022/12/02 05:34:56;;;;;;;37.20;16.60;;;5.30;91.60;;;;;;5092651;28;20047;-77
2022/12/02 05:37:21;;;;;;;37.80;17.47;;;5.30;91.70;;;;;;5094180;28;20388;-78
2022/12/02 05:39:47;;;;;;;39.87;17.93;;;5.30;91.70;;;;;;5094097;28;20090;-77
2022/12/02 05:42:13;;;;;;;37.30;17.87;;;5.30;91.70;;;;;;5094275;28;20024;-77
2022/12/02 05:44:41;;;;;;;38.90;17.20;;;5.30;91.60;;;;;;5092877;28;20028;-77
2022/12/02 05:47:15;;;;;;;35.60;16.03;;;5.30;91.70;;;;;;5092733;28;20024;-77
2022/12/02 05:49:42;;;;;;;40.50;18.13;;;5.30;91.70;;;;;;5093055;28;20024;-77
2022/12/02 05:52:22;;;;;;;38.23;17.50;;;5.30;91.60;;;;;;5094069;28;20102;-78
2022/12/02 05:54:50;;;;;;;41.07;18.13;;;5.20;91.60;;;;;;5093972;28;20024;-78
2022/12/02 05:57:22;;;;;;;42.83;18.70;;;5.30;91.50;;;;;;5092575;28;20020;-77
2022/12/02 05:59:47;;;;;;;42.00;18.03;;;5.20;91.60;;;;;;5092503;28;20024;-77
2022/12/02 06:02:28;;;;;;;38.47;18.47;;;5.20;91.60;;;;;;5093814;28;20426;-77
2022/12/02 06:04:54;;;;;;;45.63;19.93;;;5.20;91.70;;;;;;5093748;28;20028;-77
2022/12/02 06:07:20;;;;;;;36.80;17.33;;;5.20;91.70;;;;;;5092438;28;20024;-77
2022/12/02 06:09:45;;;;;;;40.70;19.50;;;5.20;91.80;;;;;;5092514;28;20115;-77
2022/12/02 06:12:16;;;;;;;41.23;18.77;;;5.20;91.90;;;;;;5093560;28;20024;-77
2022/12/02 06:14:51;;;;;;;42.23;18.40;;;5.20;91.90;;;;;;5093365;28;20051;-77
2022/12/02 06:17:17;;;;;;;39.87;18.17;;;5.20;91.90;;;;;;5093522;28;20069;-78
2022/12/02 06:19:52;;;;;;;44.90;20.03;;;5.20;91.90;;;;;;5073007;28;20035;-78
2022/12/02 06:22:30;;;;;;;40.43;18.97;;;5.30;92.00;;;;;;5075046;28;20074;-78
2022/12/02 06:24:59;;;;;;;49.47;21.70;;;5.20;91.90;;;;;;5087929;28;20028;-78
2022/12/02 06:27:26;;;;;;;40.13;17.57;;;5.20;91.90;;;;;;5083100;28;20077;-78
2022/12/02 06:29:57;;;;;;;45.17;20.33;;;5.20;91.90;;;;;;5092575;28;20024;-78
2022/12/02 06:32:30;;;;;;;38.73;18.60;;;5.20;92.00;;;;;;5089238;28;20023;-78
2022/12/02 06:34:56;;;;;;;43.75;18.88;;;5.10;92.00;;;;;;5091295;28;20052;-78
2022/12/02 06:37:34;;;;;;;40.17;19.93;;;5.10;92.10;;;;;;5090722;28;20028;-80
2022/12/02 06:40:00;;;;;;;35.27;16.53;;;5.20;92.10;;;;;;5091952;28;20387;-79
2022/12/02 06:42:35;;;;;;;43.70;19.73;;;5.10;92.10;;;;;;5089788;28;20493;-78
2022/12/02 06:45:13;;;;;;;39.27;19.27;;;5.10;92.10;;;;;;5083709;28;20024;-78
2022/12/02 06:47:41;;;;;;;42.03;18.77;;;5.10;92.20;;;;;;5089055;28;20028;-78
2022/12/02 06:50:07;;;;;;;40.17;18.33;;;5.10;92.30;;;;;;5090463;28;20099;-78
2022/12/02 06:52:37;;;;;;;43.20;19.13;;;5.10;92.40;;;;;;5091623;28;20499;-78
2022/12/02 06:55:26;;;;;;;39.37;19.40;;;5.10;92.50;;;;;;5089622;28;20088;-78
2022/12/02 06:57:58;;;;;;;40.30;18.67;;;5.00;92.50;;;;;;5092553;28;20047;-78
2022/12/02 07:00:23;;;;;;;39.97;19.67;;;5.00;92.60;;;;;;5092568;28;20024;-78
2022/12/02 07:02:52;;;;;;;44.13;20.23;;;5.00;92.70;;;;;;5074724;28;20498;-78
2022/12/02 07:05:20;;;;;;;40.93;21.13;;;5.00;92.70;;;;;;5091020;28;20480;-79
2022/12/02 07:07:45;;;;;;;41.20;19.30;;;5.00;92.70;;;;;;5091397;28;20024;-78
2022/12/02 07:10:26;;;;;;;39.57;20.10;;;4.90;93.00;;;;;;5092822;28;20476;-78
2022/12/02 07:12:52;;;;;;;46.93;20.80;;;5.00;92.80;;;;;;5091647;28;20413;-78
2022/12/02 07:15:33;;;;;;;49.30;22.87;;;5.00;92.90;;;;;;5074605;28;20465;-78
2022/12/02 07:18:08;;;;;;;47.03;21.33;;;4.90;92.90;;;;;;5091342;28;20475;-78
2022/12/02 07:20:36;;;;;;;41.57;20.27;;;4.90;93.00;;;;;;5091432;28;20077;-78
2022/12/02 07:23:25;;;;;;;50.37;21.47;;;4.90;93.00;;;;;;5092597;28;20577;-78
2022/12/02 07:25:56;;;;;;;54.03;22.10;;;4.90;93.10;;;;;;5091324;28;20108;-79
2022/12/02 07:28:23;;;;;;;49.97;22.00;;;4.90;93.20;;;;;;5074796;28;20024;-79
2022/12/02 07:31:02;;;;;;;48.30;22.10;;;4.90;93.20;;;;;;5092519;28;20039;-78
2022/12/02 07:33:28;;;;;;;44.43;21.23;;;4.90;93.40;;;;;;5093450;28;20040;-79
2022/12/02 07:35:54;;;;;;;45.53;21.40;;;4.90;93.40;;;;;;5095438;28;20044;-78
2022/12/02 07:38:20;;;;;;;53.30;21.70;;;4.80;93.50;;;;;;5094589;28;20480;-78
2022/12/02 07:40:46;;;;;;;46.30;19.80;;;4.80;93.60;;;;;;5094675;28;20035;-78
2022/12/02 07:43:11;;;;;;;45.50;21.17;;;4.80;93.60;;;;;;5093721;28;20028;-79
2022/12/02 07:45:37;;;;;;;44.93;20.67;;;4.80;93.70;;;;;;5094704;28;20107;-78
2022/12/02 07:48:03;;;;;;;42.37;18.97;;;4.80;93.80;;;;;;5094895;28;20076;-78
2022/12/02 07:50:29;;;;;;;46.33;20.33;;;4.80;93.80;;;;;;5094933;28;20024;-78
2022/12/02 07:52:54;;;;;;;46.90;21.83;;;4.80;93.90;;;;;;5095079;28;20121;-78
2022/12/02 07:55:20;;;;;;;44.37;20.83;;;4.80;94.00;;;;;;5095445;28;20028;-78
2022/12/02 07:57:45;;;;;;;43.70;21.13;;;4.70;94.10;;;;;;5096160;28;20052;-79
2022/12/02 08:00:12;;;;;;;40.40;18.37;;;4.70;94.00;;;;;;5095095;28;20032;-78
2022/12/02 08:02:38;;;;;;;38.80;18.00;;;4.80;94.10;;;;;;5096067;28;20170;-78
2022/12/02 08:05:04;;;;;;;43.77;19.70;;;4.70;94.10;;;;;;5096055;28;20043;-79
2022/12/02 08:07:30;;;;;;;51.17;21.47;;;4.80;94.40;;;;;;5077473;28;20024;-78
2022/12/02 08:09:55;;;;;;;46.40;19.53;;;4.70;94.40;;;;;;5093956;28;20515;-79
2022/12/02 08:12:21;;;;;;;43.93;20.30;;;4.70;94.80;;;;;;5093934;28;20127;-78
2022/12/02 08:14:46;;;;;;;37.90;19.23;;;4.70;94.60;;;;;;5094056;28;20036;-79
2022/12/02 08:17:12;;;;;;;46.30;21.90;;;4.70;94.60;;;;;;5092987;28;20032;-78
2022/12/02 08:19:40;;;;;;;45.73;19.37;;;4.70;94.80;;;;;;5095216;28;20035;-78
2022/12/02 08:22:06;;;;;;;43.57;19.83;;;4.70;94.70;;;;;;5093297;28;20024;-77
2022/12/02 08:24:31;;;;;;;56.43;21.23;;;4.70;94.80;;;;;;5095681;28;20036;-77
2022/12/02 08:26:57;;;;;;;46.67;20.30;;;4.70;94.90;;;;;;5077394;28;20040;-77
2022/12/02 08:29:22;;;;;;;52.50;20.77;;;4.70;94.90;;;;;;5077396;28;20035;-78
2022/12/02 08:31:48;;;;;;;48.70;20.53;;;4.70;94.90;;;;;;5094241;28;20042;-77
2022/12/02 08:34:14;;;;;;;52.17;22.33;;;4.70;94.90;;;;;;5077245;28;20032;-78
2022/12/02 08:36:39;;;;;;;53.10;22.60;;;4.70;95.00;;;;;;5076930;28;20058;-77
2022/12/02 08:39:05;;;;;;;49.33;20.67;;;4.80;95.00;;;;;;5094301;28;20118;-78
2022/12/02 08:41:32;;;;;;;55.73;21.87;;;4.80;95.10;;;;;;5094291;28;20055;-78
2022/12/02 08:43:58;;;;;;;55.50;22.27;;;4.80;95.20;;;;;;5094894;28;20457;-78
2022/12/02 08:46:25;;;;;;;53.43;21.97;;;4.80;95.10;;;;;;5093884;28;20119;-77
2022/12/02 08:48:50;;;;;;;56.43;22.97;;;4.90;95.10;;;;;;5094074;28;20035;-77
2022/12/02 08:51:16;;;;;;;55.57;23.87;;;4.70;95.10;;;;;;5077102;28;20028;-78
2022/12/02 08:53:42;;;;;;;56.30;23.17;;;4.70;95.10;;;;;;5077293;28;20035;-78
2022/12/02 08:56:07;;;;;;;58.20;23.13;;;4.70;95.10;;;;;;5094113;28;20365;-77
2022/12/02 08:58:33;;;;;;;58.00;24.23;;;4.80;95.10;;;;;;5076962;28;20115;-78
2022/12/02 09:00:58;;;;;;;59.50;24.03;;;4.80;95.10;;;;;;5076897;28;20024;-77
2022/12/02 09:03:27;;;;;;;59.60;23.13;;;4.80;95.10;;;;;;5094823;28;20119;-77
2022/12/02 09:05:53;;;;;;;59.50;23.80;;;4.80;95.10;;;;;;5093638;28;20055;-77
2022/12/02 09:08:19;;;;;;;52.00;22.87;;;4.80;95.10;;;;;;5093731;28;20039;-78
2022/12/02 09:10:45;;;;;;;56.60;22.17;;;4.80;95.10;;;;;;5094720;28;20400;-77
2022/12/02 09:13:10;;;;;;;56.93;24.27;;;4.80;95.10;;;;;;5076677;28;20034;-78
2022/12/02 09:15:36;;;;;;;58.60;22.80;;;4.80;95.10;;;;;;5093384;28;20054;-77
2022/12/02 09:18:02;;;;;;;57.13;23.50;;;4.80;95.10;;;;;;5093620;28;20063;-78
2022/12/02 09:20:27;;;;;;;61.30;24.27;;;4.80;95.00;;;;;;5093312;28;20125;-78
2022/12/02 09:22:53;;;;;;;60.47;22.93;;;4.80;95.00;;;;;;5094603;28;20039;-78
2022/12/02 09:25:19;;;;;;;62.97;24.33;;;4.90;95.00;;;;;;5093209;28;20063;-77
2022/12/02 09:27:44;;;;;;;50.83;22.00;;;4.90;95.00;;;;;;5093359;28;20391;-77
2022/12/02 09:30:10;;;;;;;57.37;23.97;;;4.90;95.00;;;;;;5092979;28;20081;-77
2022/12/02 09:32:36;;;;;;;59.10;22.67;;;4.90;94.90;;;;;;5093078;28;20031;-77
2022/12/02 09:35:02;;;;;;;57.63;23.83;;;4.90;94.90;;;;;;5094263;28;20392;-77
2022/12/02 09:37:27;;;;;;;60.70;22.53;;;5.00;94.90;;;;;;5075949;28;20507;-77
2022/12/02 09:39:53;;;;;;;55.03;22.53;;;5.00;94.90;;;;;;5094274;28;20131;-77
2022/12/02 09:42:19;;;;;;;48.10;20.93;;;5.00;94.90;;;;;;5092998;28;20028;-77
2022/12/02 09:44:47;;;;;;;51.60;21.33;;;5.00;94.90;;;;;;5093120;28;20043;-77
2022/12/02 09:47:13;;;;;;;47.47;20.67;;;5.10;94.80;;;;;;5092935;28;20024;-77
2022/12/02 09:49:40;;;;;;;48.50;22.63;;;5.10;94.50;;;;;;5092744;28;20032;-77
2022/12/02 09:52:14;;;;;;;48.17;21.43;;;5.10;94.40;;;;;;5092602;28;20032;-77
2022/12/02 09:54:41;;;;;;;46.80;19.85;;;5.10;94.30;;;;;;5092096;28;20031;-77
2022/12/02 09:57:13;;;;;;;50.07;21.57;;;5.10;94.30;;;;;;5076051;28;20063;-77
2022/12/02 09:59:39;;;;;;;53.00;21.67;;;5.10;94.40;;;;;;5093777;28;20016;-77
2022/12/02 10:02:05;;;;;;;49.23;21.77;;;5.20;94.20;;;;;;5075681;28;20017;-77
2022/12/02 10:04:32;;;;;;;50.40;21.10;;;5.20;94.20;;;;;;5093786;28;20499;-77
2022/12/02 10:06:58;;;;;;;46.57;21.37;;;5.40;94.30;;;;;;5093702;28;20024;-77
2022/12/02 10:09:29;;;;;;;47.67;21.30;;;5.30;94.20;;;;;;5075678;28;20503;-77
2022/12/02 10:11:55;;;;;;;55.33;22.43;;;5.30;94.10;;;;;;5092221;28;20031;-77
2022/12/02 10:14:21;;;;;;;49.37;22.33;;;5.30;94.00;;;;;;5075294;28;20028;-77
2022/12/02 10:16:47;;;;;;;51.73;22.90;;;5.40;93.80;;;;;;5093719;28;20496;-77
2022/12/02 10:19:18;;;;;;;51.60;22.60;;;5.40;93.70;;;;;;5093692;28;20028;-77
2022/12/02 10:21:44;;;;;;;59.90;24.27;;;5.40;93.90;;;;;;5093453;28;20095;-77
2022/12/02 10:24:12;;;;;;;53.43;23.70;;;5.40;93.40;;;;;;5092404;28;20028;-77
2022/12/02 10:26:55;;;;;;;48.83;21.27;;;5.50;93.40;;;;;;5093615;28;20032;-77
2022/12/02 10:29:29;;;;;;;52.60;21.98;;;5.40;93.40;;;;;;5075346;28;20024;-78
2022/12/02 10:31:59;;;;;;;51.78;21.55;;;5.40;93.20;;;;;;5093409;28;20119;-77
2022/12/02 10:34:26;;;;;;;40.47;17.43;;;5.50;93.20;;;;;;5091864;28;20024;-77
2022/12/02 10:36:53;;;;;;;43.70;19.37;;;5.50;93.20;;;;;;5091814;28;20450;-78
2022/12/02 10:39:25;;;;;;;46.57;20.67;;;5.50;93.20;;;;;;5093260;28;20020;-78
2022/12/02 10:42:02;;;;;;;44.27;18.43;;;5.60;93.10;;;;;;5092113;28;20035;-77
2022/12/02 10:44:28;;;;;;;49.13;19.53;;;5.60;93.00;;;;;;5093264;28;20036;-78
2022/12/02 10:47:10;;;;;;;52.33;20.60;;;5.60;92.90;;;;;;5093104;28;20055;-78
2022/12/02 10:49:36;;;;;;;52.57;21.77;;;5.60;92.80;;;;;;5093223;28;20097;-78
2022/12/02 10:52:09;;;;;;;49.37;21.67;;;5.60;92.70;;;;;;5091803;28;20494;-77
2022/12/02 10:54:38;;;;;;;54.73;22.67;;;5.60;92.70;;;;;;5091773;28;20419;-78
2022/12/02 10:57:05;;;;;;;54.00;21.80;;;5.70;92.60;;;;;;5092039;28;20415;-78
2022/12/02 10:59:32;;;;;;;48.07;19.37;;;5.60;92.50;;;;;;5091664;28;20544;-77
2022/12/02 11:02:00;;;;;;;50.90;21.50;;;5.60;92.50;;;;;;5091791;28;20107;-78
2022/12/02 11:04:27;;;;;;;42.30;17.97;;;5.50;92.70;;;;;;5093142;28;20388;-78
2022/12/02 11:06:53;;;;;;;49.93;20.87;;;5.50;92.30;;;;;;5093868;28;20036;-78
2022/12/02 11:09:25;;;;;;;49.30;21.10;;;5.40;92.20;;;;;;5095855;28;20511;-77
2022/12/02 11:11:50;;;;;;;51.50;19.53;;;5.40;92.00;;;;;;5097064;28;20111;-77
2022/12/02 11:14:37;;;;;;;41.27;17.83;;;5.40;92.00;;;;;;5095512;28;20119;-77
2022/12/02 11:17:09;;;;;;;52.17;20.47;;;5.40;92.00;;;;;;5095940;28;20028;-77
2022/12/02 11:19:34;;;;;;;53.63;21.63;;;5.30;91.90;;;;;;5095661;28;20460;-78
2022/12/02 11:22:01;;;;;;;55.37;20.93;;;5.30;91.80;;;;;;5096953;28;20035;-77
2022/12/02 11:24:26;;;;;;;47.77;19.33;;;5.20;91.90;;;;;;5096640;28;20028;-78
2022/12/02 11:26:58;;;;;;;50.60;19.87;;;5.20;92.00;;;;;;5096741;28;20088;-77
2022/12/02 11:29:25;;;;;;;49.97;18.80;;;5.30;91.90;;;;;;5095659;28;20052;-77
2022/12/02 11:32:38;;;;;;;42.10;18.23;;;5.20;91.80;;;;;;5096813;28;20032;-78
2022/12/02 11:35:12;;;;;;;47.73;19.17;;;5.20;91.90;;;;;;5095061;28;20111;-78
2022/12/02 11:37:39;;;;;;;56.17;20.77;;;5.20;91.80;;;;;;5095135;28;20048;-78
2022/12/02 11:40:12;;;;;;;42.60;16.93;;;5.20;91.80;;;;;;5096645;28;20476;-78
2022/12/02 11:42:39;;;;;;;43.70;17.30;;;5.30;91.90;;;;;;5095486;28;20021;-77
2022/12/02 11:45:17;;;;;;;49.03;17.90;;;5.30;91.80;;;;;;5095308;28;20031;-77
2022/12/02 11:47:57;;;;;;;43.63;18.03;;;5.30;91.80;;;;;;5095122;28;20024;-77
2022/12/02 11:50:37;;;;;;;41.40;16.93;;;5.30;91.70;;;;;;5096378;28;20020;-77
2022/12/02 11:53:16;;;;;;;52.33;19.37;;;5.40;91.60;;;;;;5096308;28;20024;-77
2022/12/02 11:55:53;;;;;;;51.87;19.10;;;5.30;91.40;;;;;;5094883;28;20016;-77
2022/12/02 11:58:18;;;;;;;44.30;16.97;;;5.30;91.50;;;;;;5096157;28;20024;-77
2022/12/02 12:01:04;;;;;;;45.50;18.60;;;5.40;91.60;;;;;;5095005;28;20507;-77
2022/12/02 12:03:30;;;;;;;44.03;18.23;;;5.40;91.60;;;;;;5094926;28;20020;-77
2022/12/02 12:06:13;;;;;;;57.97;20.60;;;5.50;91.60;;;;;;5094724;28;20476;-77
2022/12/02 12:08:44;;;;;;;51.87;19.40;;;5.40;91.50;;;;;;5096049;28;20020;-78
2022/12/02 12:11:21;;;;;;;50.93;19.27;;;5.50;91.50;;;;;;5095150;28;20033;-78
2022/12/02 12:14:02;;;;;;;49.40;17.87;;;5.50;91.20;;;;;;5095898;28;20486;-77
2022/12/02 12:16:33;;;;;;;44.63;18.17;;;5.50;91.20;;;;;;5094699;28;20111;-78
2022/12/02 12:19:01;;;;;;;49.83;18.57;;;5.60;91.20;;;;;;5094992;28;20028;-78
2022/12/02 12:21:29;;;;;;;44.93;19.20;;;5.50;91.30;;;;;;5095801;28;20032;-77
2022/12/02 12:24:15;;;;;;;50.13;16.87;;;5.60;91.20;;;;;;5095891;28;20108;-77
2022/12/02 12:26:41;;;;;;;46.53;18.47;;;5.60;90.80;;;;;;5094381;28;20032;-78
2022/12/02 12:29:06;;;;;;;47.43;18.73;;;5.60;90.80;;;;;;5095720;28;20047;-78
2022/12/02 12:31:32;;;;;;;42.57;18.90;;;5.60;90.70;;;;;;5094444;28;20028;-78
2022/12/02 12:33:58;;;;;;;41.50;15.87;;;5.70;90.90;;;;;;5077396;28;20515;-78
2022/12/02 12:36:23;;;;;;;38.37;15.83;;;5.70;91.00;;;;;;5094479;28;20583;-78
2022/12/02 12:38:49;;;;;;;39.10;15.83;;;5.70;91.00;;;;;;5094123;28;20479;-77
2022/12/02 12:41:15;;;;;;;38.70;14.90;;;5.80;90.90;;;;;;5094283;28;20027;-77
2022/12/02 12:43:40;;;;;;;42.67;16.87;;;5.90;90.80;;;;;;5094262;28;20040;-77